METRO LLNV-LLNV
Flight info
| Callsign | METRO |
|---|---|
| Flight time | N/A |
| Altitude | 3000 |
| Route | LLNV N0120A020 3111N03500E 3111N03458E 3118N03454E 3127N03446E 3140N03448E 3149N03447E 3150N03450E 3145N03459E 3146N03504E 3147N03512E 3148N03520E 3204N03526E 3230N03530E 3236N03533E 3245N03535E 3248N03533E 3255N03533E 3255N03518E 3256N03504E 3250N03457E 3236N03454E 3228N03452E 3220N03450E 3211N03448E 3205N03446E 3203N03445E 3201N03444E 3149N03438E 3141N03434E 3111N03443E 3108N03449E 3110N03501E 3111N03505E 3112N03505E 3112N03502E LLNV |
| Aircraft | B703/H-V/N |
Departure
| Time | 2026-04-22 09:58 |
|---|---|
| Airport | Nevatim Air Base (LLNV) |
Arrival
| Time | N/A |
|---|---|
| Airport | Nevatim Air Base (LLNV) |
| Time | Latitude | Longitude | Altitude | Speed | Heading |
|---|---|---|---|---|---|
| 2026-04-22 09:15 | 31.18955 | 35.03876 | 1403 ft | 0 kts | 345° |
| 2026-04-22 09:29 | 31.18960 | 35.03874 | 1413 ft | 4 kts | 346° |
| 2026-04-22 09:29 | 31.18990 | 35.03876 | 1408 ft | 7 kts | 22° |
| 2026-04-22 09:29 | 31.19039 | 35.03938 | 1413 ft | 0 kts | 70° |
| 2026-04-22 09:30 | 31.19057 | 35.04016 | 1405 ft | 17 kts | 76° |
| 2026-04-22 09:30 | 31.19087 | 35.04171 | 1410 ft | 19 kts | 73° |
| 2026-04-22 09:30 | 31.19155 | 35.04219 | 1409 ft | 15 kts | 351° |
| 2026-04-22 09:30 | 31.19251 | 35.04193 | 1409 ft | 14 kts | 346° |
| 2026-04-22 09:31 | 31.19339 | 35.04169 | 1400 ft | 0 kts | 347° |
| 2026-04-22 09:55 | 31.19343 | 35.04168 | 1405 ft | 5 kts | 347° |
| 2026-04-22 09:56 | 31.19406 | 35.04133 | 1399 ft | 13 kts | 313° |
| 2026-04-22 09:56 | 31.19428 | 35.04080 | 1389 ft | 7 kts | 276° |
| 2026-04-22 09:56 | 31.19425 | 35.04054 | 1400 ft | 0 kts | 257° |
| 2026-04-22 09:57 | 31.19425 | 35.04051 | 1400 ft | 0 kts | 257° |
| 2026-04-22 09:58 | 31.19378 | 35.03824 | 1383 ft | 84 kts | 256° |
| 2026-04-22 09:58 | 31.19156 | 35.02739 | 1432 ft | 182 kts | 258° |
| 2026-04-22 09:58 | 31.18831 | 35.01088 | 1994 ft | 231 kts | 258° |
| 2026-04-22 09:58 | 31.18584 | 34.99091 | 2528 ft | 267 kts | 270° |
| 2026-04-22 09:59 | 31.18948 | 34.96928 | 2856 ft | 256 kts | 296° |
| 2026-04-22 09:59 | 31.20134 | 34.95473 | 3148 ft | 259 kts | 330° |
| 2026-04-22 09:59 | 31.21786 | 34.94677 | 3729 ft | 256 kts | 339° |
| 2026-04-22 09:59 | 31.23472 | 34.93901 | 4153 ft | 256 kts | 338° |
| 2026-04-22 10:00 | 31.25126 | 34.93098 | 4370 ft | 261 kts | 337° |
| 2026-04-22 10:00 | 31.26768 | 34.92263 | 4377 ft | 249 kts | 336° |
| 2026-04-22 10:00 | 31.28425 | 34.91404 | 4308 ft | 262 kts | 336° |
| 2026-04-22 10:00 | 31.30090 | 34.90511 | 4197 ft | 264 kts | 335° |
| 2026-04-22 10:01 | 31.31723 | 34.89476 | 4079 ft | 272 kts | 325° |
| 2026-04-22 10:01 | 31.33201 | 34.88106 | 4026 ft | 270 kts | 320° |
| 2026-04-22 10:01 | 31.34614 | 34.86664 | 4016 ft | 269 kts | 318° |
| 2026-04-22 10:01 | 31.36000 | 34.85193 | 4009 ft | 268 kts | 317° |
| 2026-04-22 10:02 | 31.37373 | 34.83717 | 3984 ft | 268 kts | 317° |
| 2026-04-22 10:02 | 31.38752 | 34.82246 | 3982 ft | 267 kts | 318° |
| 2026-04-22 10:02 | 31.40137 | 34.80791 | 3989 ft | 267 kts | 319° |
| 2026-04-22 10:02 | 31.41527 | 34.79342 | 3993 ft | 268 kts | 319° |
| 2026-04-22 10:03 | 31.42916 | 34.77902 | 3981 ft | 268 kts | 319° |
| 2026-04-22 10:03 | 31.44354 | 34.76531 | 3625 ft | 269 kts | 330° |
| 2026-04-22 10:03 | 31.46152 | 34.76128 | 3188 ft | 264 kts | 5° |
| 2026-04-22 10:03 | 31.47957 | 34.76428 | 2857 ft | 260 kts | 9° |
| 2026-04-22 10:04 | 31.49737 | 34.76792 | 2506 ft | 259 kts | 10° |
| 2026-04-22 10:04 | 31.51497 | 34.77168 | 2262 ft | 255 kts | 9° |
| 2026-04-22 10:04 | 31.53236 | 34.77527 | 2143 ft | 252 kts | 9° |
| 2026-04-22 10:04 | 31.54960 | 34.77857 | 2088 ft | 250 kts | 8° |
| 2026-04-22 10:05 | 31.56636 | 34.78157 | 2045 ft | 251 kts | 8° |
| 2026-04-22 10:05 | 31.58355 | 34.78452 | 2012 ft | 250 kts | 7° |
| 2026-04-22 10:05 | 31.60082 | 34.78739 | 2018 ft | 250 kts | 7° |
| 2026-04-22 10:05 | 31.61794 | 34.79002 | 2016 ft | 250 kts | 6° |
| 2026-04-22 10:06 | 31.63531 | 34.79250 | 2052 ft | 251 kts | 6° |
| 2026-04-22 10:06 | 31.65278 | 34.79461 | 2037 ft | 254 kts | 4° |
| 2026-04-22 10:06 | 31.67042 | 34.79537 | 1798 ft | 253 kts | 358° |
| 2026-04-22 10:06 | 31.68791 | 34.79416 | 1661 ft | 251 kts | 355° |
| 2026-04-22 10:07 | 31.70526 | 34.79234 | 1617 ft | 248 kts | 354° |
| 2026-04-22 10:07 | 31.72235 | 34.79031 | 1565 ft | 246 kts | 354° |
| 2026-04-22 10:07 | 31.73944 | 34.78831 | 1579 ft | 248 kts | 354° |
| 2026-04-22 10:07 | 31.75666 | 34.78627 | 1581 ft | 248 kts | 354° |
| 2026-04-22 10:08 | 31.77375 | 34.78420 | 1541 ft | 245 kts | 354° |
| 2026-04-22 10:08 | 31.79087 | 34.78214 | 1532 ft | 246 kts | 354° |
| 2026-04-22 10:08 | 31.80776 | 34.78059 | 1524 ft | 245 kts | 3° |
| 2026-04-22 10:08 | 31.82317 | 34.78903 | 1413 ft | 251 kts | 46° |
| 2026-04-22 10:09 | 31.83190 | 34.80703 | 1459 ft | 256 kts | 64° |
| 2026-04-22 10:09 | 31.83779 | 34.82685 | 1505 ft | 260 kts | 79° |
| 2026-04-22 10:09 | 31.83419 | 34.84761 | 1448 ft | 266 kts | 121° |
| 2026-04-22 10:09 | 31.82307 | 34.86487 | 1679 ft | 263 kts | 128° |
| 2026-04-22 10:10 | 31.81137 | 34.88150 | 2094 ft | 263 kts | 129° |
| 2026-04-22 10:10 | 31.79970 | 34.89826 | 2380 ft | 264 kts | 128° |
| 2026-04-22 10:10 | 31.78842 | 34.91506 | 2471 ft | 265 kts | 127° |
| 2026-04-22 10:10 | 31.77702 | 34.93225 | 2570 ft | 266 kts | 127° |
| 2026-04-22 10:11 | 31.76596 | 34.94968 | 2583 ft | 267 kts | 126° |
| 2026-04-22 10:11 | 31.75506 | 34.96742 | 2616 ft | 268 kts | 125° |
| 2026-04-22 10:11 | 31.74492 | 34.98575 | 2584 ft | 268 kts | 115° |
| 2026-04-22 10:11 | 31.74247 | 35.00693 | 2488 ft | 264 kts | 76° |
| 2026-04-22 10:12 | 31.74978 | 35.02643 | 2669 ft | 261 kts | 61° |
| 2026-04-22 10:12 | 31.75859 | 35.04505 | 3002 ft | 262 kts | 59° |
| 2026-04-22 10:12 | 31.76789 | 35.06360 | 3445 ft | 264 kts | 58° |
| 2026-04-22 10:12 | 31.77678 | 35.08257 | 3779 ft | 269 kts | 71° |
| 2026-04-22 10:13 | 31.77915 | 35.10413 | 3923 ft | 271 kts | 86° |
| 2026-04-22 10:13 | 31.77995 | 35.12630 | 4001 ft | 272 kts | 88° |
| 2026-04-22 10:13 | 31.78040 | 35.14861 | 4076 ft | 272 kts | 88° |
| 2026-04-22 10:13 | 31.78078 | 35.17082 | 4112 ft | 272 kts | 88° |
| 2026-04-22 10:14 | 31.78116 | 35.19302 | 4108 ft | 272 kts | 89° |
| 2026-04-22 10:14 | 31.78167 | 35.21524 | 4110 ft | 271 kts | 85° |
| 2026-04-22 10:14 | 31.78416 | 35.23728 | 4113 ft | 271 kts | 80° |
| 2026-04-22 10:14 | 31.78769 | 35.25909 | 4090 ft | 273 kts | 78° |
| 2026-04-22 10:15 | 31.79157 | 35.28090 | 4091 ft | 272 kts | 78° |
| 2026-04-22 10:15 | 31.79551 | 35.30261 | 4091 ft | 272 kts | 77° |
| 2026-04-22 10:15 | 31.79954 | 35.32417 | 4086 ft | 272 kts | 76° |
| 2026-04-22 10:15 | 31.80796 | 35.34374 | 3994 ft | 271 kts | 43° |
| 2026-04-22 10:16 | 31.82444 | 35.35357 | 4012 ft | 267 kts | 14° |
| 2026-04-22 10:16 | 31.84260 | 35.35848 | 4074 ft | 268 kts | 10° |
| 2026-04-22 10:16 | 31.86089 | 35.36303 | 4063 ft | 268 kts | 11° |
| 2026-04-22 10:16 | 31.87915 | 35.36767 | 4084 ft | 268 kts | 11° |
| 2026-04-22 10:17 | 31.89733 | 35.37259 | 4059 ft | 268 kts | 12° |
| 2026-04-22 10:17 | 31.91544 | 35.37774 | 4052 ft | 268 kts | 13° |
| 2026-04-22 10:17 | 31.93350 | 35.38322 | 4032 ft | 269 kts | 14° |
| 2026-04-22 10:17 | 31.95149 | 35.38903 | 4030 ft | 267 kts | 14° |
| 2026-04-22 10:18 | 31.96954 | 35.39517 | 4045 ft | 271 kts | 15° |
| 2026-04-22 10:18 | 31.98751 | 35.40149 | 4051 ft | 269 kts | 15° |
| 2026-04-22 10:18 | 32.00544 | 35.40790 | 4045 ft | 269 kts | 16° |
| 2026-04-22 10:18 | 32.02330 | 35.41429 | 4020 ft | 268 kts | 15° |
| 2026-04-22 10:19 | 32.04123 | 35.42056 | 4035 ft | 269 kts | 15° |
| 2026-04-22 10:19 | 32.05920 | 35.42685 | 4039 ft | 269 kts | 16° |
| 2026-04-22 10:19 | 32.07725 | 35.43263 | 4041 ft | 269 kts | 11° |
| 2026-04-22 10:19 | 32.09539 | 35.43631 | 4024 ft | 267 kts | 7° |
| 2026-04-22 10:20 | 32.11393 | 35.43922 | 4029 ft | 268 kts | 6° |
| 2026-04-22 10:20 | 32.13238 | 35.44178 | 4014 ft | 268 kts | 6° |
| 2026-04-22 10:20 | 32.15092 | 35.44437 | 4034 ft | 267 kts | 6° |
| 2026-04-22 10:20 | 32.16939 | 35.44699 | 4036 ft | 268 kts | 6° |
| 2026-04-22 10:21 | 32.18789 | 35.44964 | 4043 ft | 267 kts | 6° |
| 2026-04-22 10:21 | 32.20660 | 35.45229 | 3701 ft | 272 kts | 6° |
| 2026-04-22 10:21 | 32.22525 | 35.45510 | 3286 ft | 270 kts | 6° |
| 2026-04-22 10:21 | 32.24376 | 35.45799 | 2873 ft | 265 kts | 7° |
| 2026-04-22 10:22 | 32.26191 | 35.46087 | 2714 ft | 262 kts | 7° |
| 2026-04-22 10:22 | 32.27985 | 35.46371 | 2609 ft | 260 kts | 6° |
| 2026-04-22 10:22 | 32.29785 | 35.46665 | 2581 ft | 260 kts | 7° |
| 2026-04-22 10:22 | 32.31269 | 35.46903 | 2566 ft | 258 kts | 7° |
| 2026-04-22 10:23 | 32.32982 | 35.47205 | 2528 ft | 246 kts | 8° |
| 2026-04-22 10:23 | 32.34775 | 35.47528 | 2557 ft | 264 kts | 7° |
| 2026-04-22 10:23 | 32.36569 | 35.47816 | 2581 ft | 264 kts | 6° |
| 2026-04-22 10:23 | 32.38383 | 35.48096 | 2564 ft | 263 kts | 6° |
| 2026-04-22 10:24 | 32.40192 | 35.48378 | 2558 ft | 262 kts | 6° |
| 2026-04-22 10:24 | 32.42003 | 35.48656 | 2555 ft | 262 kts | 6° |
| 2026-04-22 10:24 | 32.43817 | 35.48930 | 2579 ft | 263 kts | 6° |
| 2026-04-22 10:24 | 32.45637 | 35.49214 | 2609 ft | 270 kts | 6° |
| 2026-04-22 10:25 | 32.47730 | 35.49553 | 2665 ft | 314 kts | 7° |
| 2026-04-22 10:25 | 32.49895 | 35.49937 | 2693 ft | 315 kts | 9° |
| 2026-04-22 10:25 | 32.52006 | 35.50618 | 2656 ft | 316 kts | 18° |
| 2026-04-22 10:25 | 32.53375 | 35.51208 | 2633 ft | 316 kts | 19° |
| 2026-04-22 10:26 | 32.55420 | 35.52156 | 2643 ft | 315 kts | 20° |
| 2026-04-22 10:26 | 32.57458 | 35.53147 | 2642 ft | 316 kts | 21° |
| 2026-04-22 10:26 | 32.59472 | 35.54173 | 2617 ft | 316 kts | 22° |
| 2026-04-22 10:26 | 32.61529 | 35.55089 | 2609 ft | 315 kts | 14° |
| 2026-04-22 10:27 | 32.63660 | 35.55674 | 2594 ft | 315 kts | 10° |
| 2026-04-22 10:27 | 32.65820 | 35.56164 | 2589 ft | 314 kts | 8° |
| 2026-04-22 10:27 | 32.67972 | 35.56623 | 2561 ft | 316 kts | 8° |
| 2026-04-22 10:27 | 32.70146 | 35.57095 | 2188 ft | 315 kts | 9° |
| 2026-04-22 10:28 | 32.72293 | 35.57553 | 1897 ft | 313 kts | 8° |
| 2026-04-22 10:28 | 32.74418 | 35.57986 | 1711 ft | 311 kts | 4° |
| 2026-04-22 10:28 | 32.76480 | 35.57500 | 1548 ft | 303 kts | 332° |
| 2026-04-22 10:28 | 32.78256 | 35.56206 | 1548 ft | 303 kts | 323° |
| 2026-04-22 10:29 | 32.80025 | 35.54854 | 1505 ft | 305 kts | 335° |
| 2026-04-22 10:29 | 32.82118 | 35.54494 | 1577 ft | 305 kts | 358° |
| 2026-04-22 10:29 | 32.84267 | 35.54551 | 1836 ft | 311 kts | 0° |
| 2026-04-22 10:29 | 32.86416 | 35.54664 | 1920 ft | 309 kts | 1° |
| 2026-04-22 10:30 | 32.88591 | 35.54816 | 2079 ft | 311 kts | 1° |
| 2026-04-22 10:30 | 32.90719 | 35.54563 | 2363 ft | 306 kts | 338° |
| 2026-04-22 10:30 | 32.92323 | 35.52992 | 2749 ft | 303 kts | 301° |
| 2026-04-22 10:30 | 32.92806 | 35.50590 | 3204 ft | 301 kts | 268° |
| 2026-04-22 10:31 | 32.92599 | 35.48073 | 3709 ft | 309 kts | 264° |
| 2026-04-22 10:31 | 32.92361 | 35.45511 | 3916 ft | 313 kts | 264° |
| 2026-04-22 10:31 | 32.92151 | 35.42928 | 4013 ft | 314 kts | 266° |
| 2026-04-22 10:31 | 32.92008 | 35.40365 | 4091 ft | 314 kts | 267° |
| 2026-04-22 10:32 | 32.91909 | 35.37767 | 4094 ft | 314 kts | 268° |
| 2026-04-22 10:32 | 32.91843 | 35.35176 | 4088 ft | 314 kts | 268° |
| 2026-04-22 10:32 | 32.91780 | 35.32575 | 4054 ft | 314 kts | 269° |
| 2026-04-22 10:32 | 32.91763 | 35.29966 | 3920 ft | 317 kts | 271° |
| 2026-04-22 10:33 | 32.91885 | 35.27355 | 3513 ft | 313 kts | 275° |
| 2026-04-22 10:33 | 32.92094 | 35.24791 | 3111 ft | 309 kts | 276° |
| 2026-04-22 10:33 | 32.92316 | 35.22263 | 2741 ft | 305 kts | 276° |
| 2026-04-22 10:33 | 32.92545 | 35.19770 | 2347 ft | 302 kts | 276° |
| 2026-04-22 10:34 | 32.92775 | 35.17289 | 1968 ft | 300 kts | 277° |
| 2026-04-22 10:34 | 32.93013 | 35.14835 | 1753 ft | 297 kts | 277° |
| 2026-04-22 10:34 | 32.93239 | 35.12470 | 1650 ft | 274 kts | 277° |
| 2026-04-22 10:34 | 32.93440 | 35.10320 | 1559 ft | 251 kts | 277° |
| 2026-04-22 10:35 | 32.93634 | 35.08274 | 1531 ft | 249 kts | 277° |
| 2026-04-22 10:35 | 32.93437 | 35.06243 | 1385 ft | 254 kts | 247° |
| 2026-04-22 10:35 | 32.92285 | 35.04632 | 881 ft | 258 kts | 224° |
| 2026-04-22 10:35 | 32.90942 | 35.03300 | 1073 ft | 246 kts | 221° |
| 2026-04-22 10:36 | 32.89610 | 35.02020 | 1306 ft | 251 kts | 221° |
| 2026-04-22 10:36 | 32.88247 | 35.00701 | 1429 ft | 253 kts | 221° |
| 2026-04-22 10:36 | 32.86889 | 34.99368 | 1475 ft | 253 kts | 221° |
| 2026-04-22 10:36 | 32.85535 | 34.98024 | 1501 ft | 252 kts | 222° |
| 2026-04-22 10:37 | 32.84199 | 34.96672 | 1521 ft | 252 kts | 223° |
| 2026-04-22 10:37 | 32.81334 | 34.94269 | 1468 ft | 259 kts | 195° |
| 2026-04-22 10:37 | 32.79566 | 34.93966 | 1490 ft | 256 kts | 188° |
| 2026-04-22 10:38 | 32.77791 | 34.93729 | 1511 ft | 259 kts | 188° |
| 2026-04-22 10:38 | 32.76006 | 34.93496 | 1529 ft | 256 kts | 188° |
| 2026-04-22 10:38 | 32.74250 | 34.93255 | 1533 ft | 259 kts | 189° |
| 2026-04-22 10:38 | 32.72482 | 34.92986 | 1537 ft | 258 kts | 189° |
| 2026-04-22 10:39 | 32.70720 | 34.92708 | 1527 ft | 258 kts | 190° |
| 2026-04-22 10:39 | 32.68949 | 34.92409 | 1522 ft | 253 kts | 191° |
| 2026-04-22 10:39 | 32.67183 | 34.92093 | 1529 ft | 258 kts | 191° |
| 2026-04-22 10:39 | 32.65414 | 34.91767 | 1542 ft | 258 kts | 191° |
| 2026-04-22 10:40 | 32.63637 | 34.91419 | 1531 ft | 258 kts | 192° |
| 2026-04-22 10:40 | 32.61865 | 34.91035 | 1531 ft | 256 kts | 193° |
| 2026-04-22 10:40 | 32.60104 | 34.90598 | 1519 ft | 259 kts | 194° |
| 2026-04-22 10:40 | 32.58353 | 34.90156 | 1518 ft | 258 kts | 193° |
| 2026-04-22 10:41 | 32.56600 | 34.89729 | 1524 ft | 258 kts | 194° |
| 2026-04-22 10:41 | 32.54852 | 34.89299 | 1524 ft | 255 kts | 194° |
| 2026-04-22 10:41 | 32.53104 | 34.88874 | 1524 ft | 256 kts | 194° |
| 2026-04-22 10:41 | 32.51364 | 34.88442 | 1506 ft | 254 kts | 194° |
| 2026-04-22 10:42 | 32.49648 | 34.88005 | 1517 ft | 254 kts | 194° |
| 2026-04-22 10:42 | 32.47922 | 34.87545 | 1518 ft | 257 kts | 195° |
| 2026-04-22 10:42 | 32.46194 | 34.87043 | 1526 ft | 255 kts | 195° |
| 2026-04-22 10:42 | 32.44454 | 34.86596 | 1515 ft | 257 kts | 193° |
| 2026-04-22 10:43 | 32.42703 | 34.86198 | 1524 ft | 256 kts | 193° |
| 2026-04-22 10:43 | 32.40960 | 34.85808 | 1517 ft | 257 kts | 193° |
| 2026-04-22 10:43 | 32.39198 | 34.85423 | 1525 ft | 258 kts | 193° |
| 2026-04-22 10:43 | 32.37436 | 34.85033 | 1518 ft | 258 kts | 193° |
| 2026-04-22 10:44 | 32.35678 | 34.84626 | 1518 ft | 257 kts | 193° |
| 2026-04-22 10:44 | 32.33929 | 34.84222 | 1516 ft | 256 kts | 193° |
| 2026-04-22 10:44 | 32.32186 | 34.83782 | 1506 ft | 254 kts | 194° |
| 2026-04-22 10:44 | 32.30455 | 34.83306 | 1513 ft | 255 kts | 195° |
| 2026-04-22 10:45 | 32.28726 | 34.82812 | 1515 ft | 256 kts | 196° |
| 2026-04-22 10:45 | 32.27025 | 34.82310 | 1515 ft | 254 kts | 196° |
| 2026-04-22 10:45 | 32.25293 | 34.81793 | 1505 ft | 255 kts | 196° |
| 2026-04-22 10:45 | 32.23573 | 34.81276 | 1511 ft | 255 kts | 197° |
| 2026-04-22 10:46 | 32.21852 | 34.80758 | 1512 ft | 257 kts | 197° |
| 2026-04-22 10:46 | 32.20116 | 34.80241 | 1515 ft | 257 kts | 197° |
| 2026-04-22 10:46 | 32.18378 | 34.79706 | 1510 ft | 259 kts | 198° |
| 2026-04-22 10:46 | 32.16652 | 34.79121 | 1507 ft | 259 kts | 199° |
| 2026-04-22 10:47 | 32.14942 | 34.78521 | 1503 ft | 259 kts | 199° |
| 2026-04-22 10:47 | 32.13222 | 34.77905 | 1513 ft | 256 kts | 199° |
| 2026-04-22 10:47 | 32.11515 | 34.77287 | 1507 ft | 257 kts | 199° |
| 2026-04-22 10:47 | 32.09807 | 34.76655 | 1511 ft | 257 kts | 200° |
| 2026-04-22 10:48 | 32.08114 | 34.75994 | 1505 ft | 254 kts | 201° |
| 2026-04-22 10:48 | 32.06467 | 34.75223 | 1503 ft | 255 kts | 206° |
| 2026-04-22 10:48 | 32.04883 | 34.74302 | 1510 ft | 253 kts | 210° |
| 2026-04-22 10:48 | 32.03236 | 34.73525 | 1512 ft | 256 kts | 200° |
| 2026-04-22 10:49 | 32.01501 | 34.73071 | 1505 ft | 258 kts | 192° |
| 2026-04-22 10:49 | 31.99787 | 34.72536 | 1507 ft | 255 kts | 202° |
| 2026-04-22 10:49 | 31.98174 | 34.71759 | 1515 ft | 253 kts | 206° |
| 2026-04-22 10:49 | 31.96547 | 34.70900 | 1507 ft | 256 kts | 207° |
| 2026-04-22 10:50 | 31.94937 | 34.70024 | 1512 ft | 256 kts | 207° |
| 2026-04-22 10:50 | 31.93324 | 34.69137 | 1508 ft | 255 kts | 208° |
| 2026-04-22 10:50 | 31.91699 | 34.68245 | 1505 ft | 255 kts | 207° |
| 2026-04-22 10:50 | 31.90077 | 34.67362 | 1505 ft | 257 kts | 207° |
| 2026-04-22 10:51 | 31.88459 | 34.66489 | 1507 ft | 255 kts | 206° |
| 2026-04-22 10:51 | 31.86833 | 34.65617 | 1505 ft | 256 kts | 207° |
| 2026-04-22 10:51 | 31.85214 | 34.64752 | 1514 ft | 256 kts | 206° |
| 2026-04-22 10:51 | 31.83590 | 34.63889 | 1562 ft | 256 kts | 206° |
| 2026-04-22 10:52 | 31.81967 | 34.63036 | 1547 ft | 254 kts | 206° |
| 2026-04-22 10:52 | 31.80341 | 34.62201 | 1525 ft | 256 kts | 204° |
| 2026-04-22 10:52 | 31.78687 | 34.61476 | 1527 ft | 256 kts | 201° |
| 2026-04-22 10:52 | 31.76998 | 34.60804 | 1528 ft | 257 kts | 200° |
| 2026-04-22 10:53 | 31.75289 | 34.60151 | 1539 ft | 258 kts | 200° |
| 2026-04-22 10:53 | 31.73576 | 34.59504 | 1546 ft | 260 kts | 200° |
| 2026-04-22 10:53 | 31.71863 | 34.58829 | 1589 ft | 259 kts | 200° |
| 2026-04-22 10:53 | 31.70142 | 34.58179 | 1587 ft | 260 kts | 200° |
| 2026-04-22 10:54 | 31.68413 | 34.57542 | 1635 ft | 259 kts | 199° |
| 2026-04-22 10:54 | 31.66654 | 34.57114 | 1561 ft | 262 kts | 180° |
| 2026-04-22 10:54 | 31.64869 | 34.57563 | 1533 ft | 265 kts | 165° |
| 2026-04-22 10:54 | 31.63100 | 34.58180 | 1566 ft | 265 kts | 164° |
| 2026-04-22 10:55 | 31.61332 | 34.58806 | 1586 ft | 266 kts | 165° |
| 2026-04-22 10:55 | 31.59565 | 34.59409 | 1581 ft | 262 kts | 165° |
| 2026-04-22 10:55 | 31.57811 | 34.59994 | 1527 ft | 262 kts | 166° |
| 2026-04-22 10:55 | 31.56029 | 34.60560 | 1570 ft | 265 kts | 166° |
| 2026-04-22 10:56 | 31.54250 | 34.61106 | 1585 ft | 263 kts | 167° |
| 2026-04-22 10:56 | 31.52457 | 34.61657 | 1587 ft | 267 kts | 167° |
| 2026-04-22 10:56 | 31.50676 | 34.62197 | 1608 ft | 264 kts | 167° |
| 2026-04-22 10:56 | 31.48904 | 34.62714 | 1599 ft | 266 kts | 168° |
| 2026-04-22 10:57 | 31.47105 | 34.63253 | 1573 ft | 270 kts | 167° |
| 2026-04-22 10:57 | 31.45282 | 34.63797 | 1535 ft | 268 kts | 168° |
| 2026-04-22 10:57 | 31.43452 | 34.64320 | 1532 ft | 269 kts | 167° |
| 2026-04-22 10:57 | 31.41641 | 34.64832 | 1529 ft | 270 kts | 167° |
| 2026-04-22 10:58 | 31.39827 | 34.65347 | 1520 ft | 271 kts | 168° |
| 2026-04-22 10:58 | 31.37994 | 34.65860 | 1528 ft | 268 kts | 168° |
| 2026-04-22 10:58 | 31.36188 | 34.66364 | 1512 ft | 268 kts | 167° |
| 2026-04-22 10:58 | 31.34351 | 34.66873 | 1515 ft | 271 kts | 168° |
| 2026-04-22 10:59 | 31.32541 | 34.67393 | 1534 ft | 267 kts | 168° |
| 2026-04-22 10:59 | 31.30729 | 34.67905 | 1526 ft | 270 kts | 167° |
| 2026-04-22 10:59 | 31.28910 | 34.68411 | 1505 ft | 268 kts | 167° |
| 2026-04-22 10:59 | 31.27100 | 34.68934 | 1512 ft | 267 kts | 167° |
| 2026-04-22 11:00 | 31.25279 | 34.69454 | 1499 ft | 270 kts | 167° |
| 2026-04-22 11:00 | 31.23476 | 34.69956 | 1482 ft | 268 kts | 167° |
| 2026-04-22 11:00 | 31.21669 | 34.70459 | 1477 ft | 267 kts | 168° |
| 2026-04-22 11:00 | 31.19867 | 34.70956 | 1502 ft | 264 kts | 167° |
| 2026-04-22 11:01 | 31.18097 | 34.71589 | 1469 ft | 270 kts | 151° |
| 2026-04-22 11:01 | 31.16859 | 34.73181 | 1445 ft | 266 kts | 118° |
| 2026-04-22 11:01 | 31.15995 | 34.75092 | 1471 ft | 267 kts | 116° |
| 2026-04-22 11:01 | 31.15166 | 34.77044 | 1497 ft | 267 kts | 115° |
| 2026-04-22 11:02 | 31.14371 | 34.78984 | 1862 ft | 267 kts | 114° |
| 2026-04-22 11:02 | 31.13580 | 34.80934 | 2327 ft | 265 kts | 113° |
| 2026-04-22 11:02 | 31.13196 | 34.83026 | 2629 ft | 268 kts | 84° |
| 2026-04-22 11:02 | 31.13488 | 34.85163 | 2841 ft | 269 kts | 77° |
| 2026-04-22 11:03 | 31.13862 | 34.87274 | 2915 ft | 267 kts | 76° |
| 2026-04-22 11:03 | 31.14263 | 34.89413 | 2956 ft | 270 kts | 76° |
| 2026-04-22 11:03 | 31.14656 | 34.91549 | 2995 ft | 270 kts | 76° |
| 2026-04-22 11:03 | 31.15025 | 34.93692 | 2997 ft | 269 kts | 78° |
| 2026-04-22 11:04 | 31.15369 | 34.95843 | 3000 ft | 271 kts | 78° |
| 2026-04-22 11:04 | 31.15686 | 34.98002 | 3027 ft | 270 kts | 79° |
| 2026-04-22 11:04 | 31.15989 | 35.00155 | 3016 ft | 268 kts | 80° |
| 2026-04-22 11:04 | 31.16242 | 35.02322 | 3032 ft | 269 kts | 81° |
| 2026-04-22 11:05 | 31.16592 | 35.04478 | 2858 ft | 264 kts | 77° |
| 2026-04-22 11:05 | 31.16999 | 35.06526 | 2685 ft | 247 kts | 74° |
| 2026-04-22 11:05 | 31.17548 | 35.08315 | 2590 ft | 224 kts | 56° |
| 2026-04-22 11:05 | 31.18677 | 35.09328 | 2565 ft | 188 kts | 11° |
| 2026-04-22 11:06 | 31.19819 | 35.09291 | 2539 ft | 150 kts | 339° |
| 2026-04-22 11:06 | 31.20358 | 35.08399 | 2407 ft | 139 kts | 271° |
| 2026-04-22 11:06 | 31.20058 | 35.07254 | 2080 ft | 148 kts | 256° |
| 2026-04-22 11:06 | 31.19818 | 35.06092 | 1876 ft | 145 kts | 259° |
| 2026-04-22 11:07 | 31.19603 | 35.04956 | 1613 ft | 142 kts | 259° |
| 2026-04-22 11:07 | 31.19380 | 35.03847 | 1402 ft | 136 kts | 259° |
| 2026-04-22 11:07 | 31.19206 | 35.02947 | 1367 ft | 68 kts | 256° |
| 2026-04-22 11:07 | 31.19125 | 35.02521 | 1361 ft | 50 kts | 258° |